Time;durP1;ratioP1;P1;durP2;ratioP2;P2;SDS_P1;SDS_P2;PMS_P1;PMS_P2;Temp;Humidity;BMP_temperature;BMP_pressure;BME280_temperature;BME280_humidity;BME280_pressure;Samples;Min_cycle;Max_cycle;Signal;HPM_P1;HPM_P2
2021/06/19 00:02:01;;;;;;;;;;;28.10;93.20;;;;;;5107291;28;19904;-54
2021/06/19 00:04:30;;;;;;;;;;;28.10;93.10;;;;;;5107449;28;19912;-53
2021/06/19 00:06:57;;;;;;;;;;;28.10;93.10;;;;;;5106712;28;19926;-56
2021/06/19 00:09:23;;;;;;;;;;;28.10;93.00;;;;;;5107039;28;19916;-53
2021/06/19 00:11:49;;;;;;;;;;;28.00;92.90;;;;;;5107116;28;19904;-55
2021/06/19 00:14:15;;;;;;;;;;;28.00;92.90;;;;;;5106786;28;19912;-54
2021/06/19 00:16:42;;;;;;;;;;;28.00;92.90;;;;;;5106667;28;19910;-56
2021/06/19 00:19:08;;;;;;;;;;;28.00;92.90;;;;;;5107061;28;19919;-51
2021/06/19 00:21:34;;;;;;;;;;;27.90;92.80;;;;;;5106855;28;19904;-53
2021/06/19 00:24:00;;;;;;;;;;;27.90;92.90;;;;;;5106839;28;19935;-57
2021/06/19 00:26:26;;;;;;;;;;;27.90;92.80;;;;;;5106622;28;19950;-56
2021/06/19 00:28:53;;;;;;;;;;;27.90;92.80;;;;;;5106873;28;19912;-53
2021/06/19 00:31:19;;;;;;;;;;;27.90;92.90;;;;;;5106522;28;19942;-54
2021/06/19 00:33:45;;;;;;;;;;;27.90;92.80;;;;;;5106595;28;19940;-52
2021/06/19 00:36:11;;;;;;;;;;;27.90;92.90;;;;;;5104760;28;20201;-54
2021/06/19 00:38:37;;;;;;;;;;;27.80;92.80;;;;;;5106414;28;19916;-54
2021/06/19 00:41:03;;;;;;;;;;;27.80;92.70;;;;;;5106409;28;19904;-58
2021/06/19 00:43:30;;;;;;;;;;;27.80;92.60;;;;;;5106285;28;19976;-53
2021/06/19 00:45:56;;;;;;;;;;;27.80;92.50;;;;;;5106256;28;19951;-54
2021/06/19 00:48:25;;;;;;;;;;;27.80;92.40;;;;;;5106288;28;19912;-54
2021/06/19 00:50:51;;;;;;;;;;;27.80;92.50;;;;;;5106346;28;19971;-54
2021/06/19 00:53:18;;;;;;;;;;;27.80;92.40;;;;;;5106050;28;19904;-55
2021/06/19 00:55:44;;;;;;;;;;;27.80;92.40;;;;;;5105846;28;19983;-54
2021/06/19 00:58:11;;;;;;;;;;;27.70;92.20;;;;;;5106035;28;19966;-56
2021/06/19 01:00:38;;;;;;;;;;;27.70;92.40;;;;;;5106088;28;19939;-54
2021/06/19 01:03:04;;;;;;;;;;;27.70;92.30;;;;;;5105972;28;19908;-52
2021/06/19 01:05:31;;;;;;;;;;;27.70;92.30;;;;;;5106432;28;19920;-53
2021/06/19 01:07:58;;;;;;;;;;;27.70;92.30;;;;;;5106041;28;19910;-54
2021/06/19 01:10:24;;;;;;;;;;;27.70;92.30;;;;;;5106255;28;19912;-56
2021/06/19 01:12:51;;;;;;;;;;;27.70;92.40;;;;;;5105779;28;19949;-54
2021/06/19 01:15:17;;;;;;;;;;;27.60;92.20;;;;;;5106246;28;20103;-53
2021/06/19 01:17:44;;;;;;;;;;;27.70;92.30;;;;;;5105705;28;19915;-55
2021/06/19 01:20:11;;;;;;;;;;;27.60;92.30;;;;;;5106104;28;19939;-53
2021/06/19 01:22:39;;;;;;;;;;;27.60;92.40;;;;;;5105609;28;19911;-54
2021/06/19 01:25:06;;;;;;;;;;;27.60;92.50;;;;;;5105692;28;19919;-52
2021/06/19 01:27:32;;;;;;;;;;;27.50;92.60;;;;;;5105522;28;19904;-56
2021/06/19 01:29:59;;;;;;;;;;;27.60;92.50;;;;;;5105665;28;20141;-54
2021/06/19 01:32:31;;;;;;;;;;;27.60;92.60;;;;;;5105363;28;20086;-53
2021/06/19 01:34:57;;;;;;;;;;;27.50;92.50;;;;;;5105845;28;19928;-54
2021/06/19 01:37:24;;;;;;;;;;;27.50;92.40;;;;;;5105401;28;20239;-55
2021/06/19 01:39:50;;;;;;;;;;;27.50;92.30;;;;;;5105485;28;19950;-56
2021/06/19 01:42:16;;;;;;;;;;;27.50;92.40;;;;;;5105199;28;19935;-57
2021/06/19 01:44:42;;;;;;;;;;;27.50;92.40;;;;;;5105417;28;19919;-53
2021/06/19 01:47:08;;;;;;;;;;;27.50;92.40;;;;;;5105043;28;19904;-56
2021/06/19 01:49:36;;;;;;;;;;;27.50;92.50;;;;;;5105437;28;19912;-54
2021/06/19 01:52:03;;;;;;;;;;;27.50;92.50;;;;;;5105110;28;19912;-53
2021/06/19 01:54:38;;;;;;;;;;;27.50;92.60;;;;;;5105287;28;19912;-57
2021/06/19 01:57:05;;;;;;;;;;;27.50;92.60;;;;;;5105044;28;19952;-58
2021/06/19 01:59:31;;;;;;;;;;;27.40;92.50;;;;;;5105341;28;20211;-53
2021/06/19 02:01:59;;;;;;;;;;;27.40;92.50;;;;;;5104784;28;19904;-54
2021/06/19 02:04:26;;;;;;;;;;;27.40;92.40;;;;;;5105113;28;19912;-57
2021/06/19 02:06:52;;;;;;;;;;;27.40;92.40;;;;;;5104472;28;19908;-55
2021/06/19 02:09:19;;;;;;;;;;;27.40;92.40;;;;;;5104598;28;19915;-55
2021/06/19 02:11:46;;;;;;;;;;;27.40;92.40;;;;;;5104830;28;20096;-53
2021/06/19 02:14:16;;;;;;;;;;;27.40;92.30;;;;;;5104824;28;19913;-55
2021/06/19 02:16:42;;;;;;;;;;;27.40;92.30;;;;;;5104540;28;19967;-58
2021/06/19 02:19:08;;;;;;;;;;;27.30;92.30;;;;;;5104892;28;19983;-53
2021/06/19 02:21:35;;;;;;;;;;;27.30;92.40;;;;;;5104614;28;19939;-55
2021/06/19 02:24:02;;;;;;;;;;;27.30;92.40;;;;;;5103572;28;19912;-56
2021/06/19 02:26:28;;;;;;;;;;;27.30;92.30;;;;;;5104401;28;19911;-56
2021/06/19 02:28:55;;;;;;;;;;;27.30;92.30;;;;;;5104607;28;19955;-53
2021/06/19 02:31:22;;;;;;;;;;;27.30;92.30;;;;;;5104450;28;20038;-56
2021/06/19 02:33:48;;;;;;;;;;;27.30;92.30;;;;;;5104629;28;19933;-55
2021/06/19 02:36:15;;;;;;;;;;;27.30;92.30;;;;;;5103400;28;19943;-56
2021/06/19 02:38:41;;;;;;;;;;;27.30;92.20;;;;;;5104321;28;19954;-56
2021/06/19 02:41:07;;;;;;;;;;;27.30;92.20;;;;;;5104396;28;19934;-53
2021/06/19 02:43:34;;;;;;;;;;;27.30;92.20;;;;;;5104482;28;19935;-56
2021/06/19 02:46:00;;;;;;;;;;;27.30;92.30;;;;;;5104118;28;19949;-54
2021/06/19 02:48:27;;;;;;;;;;;27.30;92.50;;;;;;5104305;28;19911;-55
2021/06/19 02:50:53;;;;;;;;;;;27.20;92.60;;;;;;5104348;28;19915;-55
2021/06/19 02:53:19;;;;;;;;;;;27.20;92.40;;;;;;5104164;28;20189;-55
2021/06/19 02:55:46;;;;;;;;;;;27.20;92.30;;;;;;5104234;28;20143;-56
2021/06/19 02:58:13;;;;;;;;;;;27.20;92.20;;;;;;5104098;28;19904;-55
2021/06/19 03:00:39;;;;;;;;;;;27.20;92.10;;;;;;5104282;28;19942;-56
2021/06/19 03:03:06;;;;;;;;;;;27.20;92.20;;;;;;5104222;28;20200;-57
2021/06/19 03:05:33;;;;;;;;;;;27.20;92.20;;;;;;5104564;28;19955;-57
2021/06/19 03:08:00;;;;;;;;;;;27.20;92.20;;;;;;5104092;28;19967;-54
2021/06/19 03:10:28;;;;;;;;;;;27.20;92.20;;;;;;5103986;28;19912;-57
2021/06/19 03:12:54;;;;;;;;;;;27.20;92.20;;;;;;5104189;28;20142;-56
2021/06/19 03:15:20;;;;;;;;;;;27.20;92.20;;;;;;5104568;28;19912;-55
2021/06/19 03:17:46;;;;;;;;;;;27.20;92.20;;;;;;5103984;28;20100;-52
2021/06/19 03:20:13;;;;;;;;;;;27.20;92.20;;;;;;5107788;28;19919;-54
2021/06/19 03:22:50;;;;;;;;;;;27.10;92.20;;;;;;5108060;28;19945;-53
2021/06/19 03:25:20;;;;;;;;;;;27.10;92.30;;;;;;5108025;28;20142;-54
2021/06/19 03:27:47;;;;;;;;;;;27.10;92.30;;;;;;5107923;28;20193;-57
2021/06/19 03:30:14;;;;;;;;;;;27.10;92.30;;;;;;5108251;28;20129;-55
2021/06/19 03:32:41;;;;;;;;;;;27.10;92.30;;;;;;5107757;28;19971;-54
2021/06/19 03:35:08;;;;;;;;;;;27.10;92.20;;;;;;5108164;28;19940;-57
2021/06/19 03:37:34;;;;;;;;;;;27.10;92.30;;;;;;5107541;28;19945;-56
2021/06/19 03:40:01;;;;;;;;;;;27.10;92.20;;;;;;5108048;28;20073;-54
2021/06/19 03:42:28;;;;;;;;;;;27.00;92.20;;;;;;5107531;28;19916;-55
2021/06/19 03:44:54;;;;;;;;;;;27.10;92.20;;;;;;5107714;28;19915;-57
2021/06/19 03:47:20;;;;;;;;;;;27.00;92.20;;;;;;5107531;28;19931;-55
2021/06/19 03:49:46;;;;;;;;;;;27.00;92.10;;;;;;5107879;28;19978;-55
2021/06/19 03:52:12;;;;;;;;;;;27.00;92.20;;;;;;5107548;28;20249;-54
2021/06/19 03:54:39;;;;;;;;;;;27.00;92.20;;;;;;5107578;28;19962;-52
2021/06/19 03:57:05;;;;;;;;;;;27.00;92.20;;;;;;5107370;28;19912;-53
2021/06/19 03:59:32;;;;;;;;;;;26.90;92.40;;;;;;5107292;28;19916;-53
2021/06/19 04:01:58;;;;;;;;;;;26.90;92.50;;;;;;5107171;28;19908;-54
2021/06/19 04:04:24;;;;;;;;;;;26.90;92.50;;;;;;5107461;28;19908;-57
2021/06/19 04:06:51;;;;;;;;;;;26.90;92.50;;;;;;5107024;28;20105;-55
2021/06/19 04:09:17;;;;;;;;;;;26.90;92.50;;;;;;5107149;28;19912;-52
2021/06/19 04:11:43;;;;;;;;;;;26.80;92.60;;;;;;5106767;28;19908;-49
2021/06/19 04:14:10;;;;;;;;;;;26.80;92.50;;;;;;5107071;28;19983;-56
2021/06/19 04:16:37;;;;;;;;;;;26.90;92.70;;;;;;5106572;28;19940;-51
2021/06/19 04:19:03;;;;;;;;;;;26.90;92.50;;;;;;5106712;28;20097;-53
2021/06/19 04:21:30;;;;;;;;;;;26.90;92.50;;;;;;5105651;28;19912;-57
2021/06/19 04:23:56;;;;;;;;;;;26.90;92.40;;;;;;5106848;28;20216;-53
2021/06/19 04:26:22;;;;;;;;;;;26.90;92.30;;;;;;5105584;28;19930;-52
2021/06/19 04:28:49;;;;;;;;;;;26.90;92.40;;;;;;5106323;28;19919;-51
2021/06/19 04:31:15;;;;;;;;;;;26.90;92.30;;;;;;5101303;28;20103;-53
2021/06/19 04:33:41;;;;;;;;;;;26.80;92.20;;;;;;5099207;28;19954;-52
2021/06/19 04:36:08;;;;;;;;;;;26.80;92.20;;;;;;5104252;28;20204;-52
2021/06/19 04:38:34;;;;;;;;;;;26.80;92.30;;;;;;5106262;28;19912;-50
2021/06/19 04:41:10;;;;;;;;;;;26.80;92.30;;;;;;5106660;28;19912;-48
2021/06/19 04:46:08;;;;;;;;;;;26.80;92.40;;;;;;5106281;28;19915;-50
2021/06/19 04:48:34;;;;;;;;;;;26.80;92.40;;;;;;5106030;28;19919;-54
2021/06/19 04:51:00;;;;;;;;;;;26.70;92.40;;;;;;5106237;28;19904;-53
2021/06/19 04:53:27;;;;;;;;;;;26.70;92.50;;;;;;5102514;28;19916;-53
2021/06/19 04:55:53;;;;;;;;;;;26.70;92.50;;;;;;5106000;28;20189;-55
2021/06/19 04:58:19;;;;;;;;;;;26.60;92.50;;;;;;5105414;28;20259;-53
2021/06/19 05:00:45;;;;;;;;;;;26.60;92.60;;;;;;5104466;28;19904;-49
2021/06/19 05:03:13;;;;;;;;;;;26.60;92.50;;;;;;5105978;28;19945;-50
2021/06/19 05:05:39;;;;;;;;;;;26.60;92.60;;;;;;5105948;28;19908;-51
2021/06/19 05:08:06;;;;;;;;;;;26.60;92.60;;;;;;5105810;28;19908;-53
2021/06/19 05:10:32;;;;;;;;;;;26.60;92.50;;;;;;5106356;28;19912;-52
2021/06/19 05:12:59;;;;;;;;;;;26.60;92.50;;;;;;5099162;28;19915;-53
2021/06/19 05:15:25;;;;;;;;;;;26.60;92.50;;;;;;5092499;28;19920;-51
2021/06/19 05:17:52;;;;;;;;;;;26.60;92.60;;;;;;5093823;28;20232;-53
2021/06/19 05:20:19;;;;;;;;;;;26.60;92.60;;;;;;5094004;28;20193;-50
2021/06/19 05:22:45;;;;;;;;;;;26.50;92.70;;;;;;5095221;28;19942;-56
2021/06/19 05:25:13;;;;;;;;;;;26.50;92.50;;;;;;5100069;28;19928;-51
2021/06/19 05:27:40;;;;;;;;;;;26.50;92.50;;;;;;5104154;28;19950;-53
2021/06/19 05:30:06;;;;;;;;;;;26.50;92.50;;;;;;5104481;28;20091;-52
2021/06/19 05:32:32;;;;;;;;;;;26.50;92.60;;;;;;5103927;28;20208;-51
2021/06/19 05:34:58;;;;;;;;;;;26.50;92.60;;;;;;5096369;28;19912;-52
2021/06/19 05:37:25;;;;;;;;;;;26.40;92.60;;;;;;5095119;28;19904;-51
2021/06/19 05:39:53;;;;;;;;;;;26.40;92.70;;;;;;5100705;28;20242;-52
2021/06/19 05:42:20;;;;;;;;;;;26.40;92.70;;;;;;5104134;28;20266;-53
2021/06/19 05:44:46;;;;;;;;;;;26.30;92.70;;;;;;5105195;28;19912;-51
2021/06/19 05:47:12;;;;;;;;;;;26.40;92.70;;;;;;5105251;28;19927;-51
2021/06/19 05:49:39;;;;;;;;;;;26.40;92.60;;;;;;5105565;28;19912;-50
2021/06/19 05:52:05;;;;;;;;;;;26.30;92.60;;;;;;5105221;28;19911;-54
2021/06/19 05:54:36;;;;;;;;;;;26.30;92.60;;;;;;5105265;28;19913;-48
2021/06/19 05:57:05;;;;;;;;;;;26.30;92.60;;;;;;5104767;28;19915;-51
2021/06/19 05:59:32;;;;;;;;;;;26.30;92.60;;;;;;5105023;28;19919;-54
2021/06/19 06:01:58;;;;;;;;;;;26.30;92.50;;;;;;5104804;28;19968;-52
2021/06/19 06:04:24;;;;;;;;;;;26.30;92.50;;;;;;5105231;28;19919;-53
2021/06/19 06:06:50;;;;;;;;;;;26.30;92.60;;;;;;5104942;28;19975;-57
2021/06/19 06:09:17;;;;;;;;;;;26.30;92.70;;;;;;5104916;28;20131;-49
2021/06/19 06:11:43;;;;;;;;;;;26.30;92.70;;;;;;5104913;28;19905;-51
2021/06/19 06:14:10;;;;;;;;;;;26.20;92.60;;;;;;5104690;28;19944;-51
2021/06/19 06:16:37;;;;;;;;;;;26.20;92.70;;;;;;5104714;28;19911;-52
2021/06/19 06:19:03;;;;;;;;;;;26.20;92.70;;;;;;5104958;28;20088;-52
2021/06/19 06:21:29;;;;;;;;;;;26.20;92.70;;;;;;5104790;28;20185;-51
2021/06/19 06:23:55;;;;;;;;;;;26.20;92.60;;;;;;5104664;28;20299;-52
2021/06/19 06:26:22;;;;;;;;;;;26.20;92.60;;;;;;5104506;28;19916;-49
2021/06/19 06:28:48;;;;;;;;;;;26.20;92.70;;;;;;5104355;28;19912;-53
2021/06/19 06:31:15;;;;;;;;;;;26.10;92.60;;;;;;5104464;28;19911;-51
2021/06/19 06:33:41;;;;;;;;;;;26.10;92.60;;;;;;5103451;28;20021;-53
2021/06/19 06:36:07;;;;;;;;;;;26.10;92.50;;;;;;5103081;28;20151;-52
2021/06/19 06:38:33;;;;;;;;;;;26.10;92.60;;;;;;5103187;28;19912;-53
2021/06/19 06:40:59;;;;;;;;;;;26.10;92.60;;;;;;5104334;28;19923;-54
2021/06/19 06:43:26;;;;;;;;;;;26.10;92.60;;;;;;5104344;28;19904;-50
2021/06/19 06:45:52;;;;;;;;;;;26.10;92.70;;;;;;5104364;28;20223;-50
2021/06/19 06:48:18;;;;;;;;;;;26.20;92.70;;;;;;5104391;28;19904;-52
2021/06/19 06:50:44;;;;;;;;;;;26.10;92.70;;;;;;5104457;28;19954;-48
2021/06/19 06:53:10;;;;;;;;;;;26.10;92.70;;;;;;5104322;28;19904;-52
2021/06/19 06:55:37;;;;;;;;;;;26.10;92.70;;;;;;5108520;28;19911;-52
2021/06/19 06:58:03;;;;;;;;;;;26.10;92.70;;;;;;5108704;28;19955;-51
2021/06/19 07:00:29;;;;;;;;;;;26.10;92.70;;;;;;5109003;28;20181;-50
2021/06/19 07:02:55;;;;;;;;;;;26.10;92.70;;;;;;5108363;28;19908;-48
2021/06/19 07:05:21;;;;;;;;;;;26.10;92.80;;;;;;5108820;28;19962;-52
2021/06/19 07:07:48;;;;;;;;;;;26.10;92.80;;;;;;5108459;28;20302;-54
2021/06/19 07:10:14;;;;;;;;;;;26.10;92.90;;;;;;5108602;28;19978;-52
2021/06/19 07:12:45;;;;;;;;;;;26.10;93.00;;;;;;5108286;28;19904;-51
2021/06/19 07:15:12;;;;;;;;;;;26.00;93.00;;;;;;5108156;28;19940;-52
2021/06/19 07:17:38;;;;;;;;;;;26.00;93.20;;;;;;5108360;28;19979;-52
2021/06/19 07:20:06;;;;;;;;;;;26.10;93.30;;;;;;5108531;28;20231;-51
2021/06/19 07:22:32;;;;;;;;;;;26.00;93.30;;;;;;5108107;28;19957;-50
2021/06/19 07:24:58;;;;;;;;;;;26.00;93.20;;;;;;5108132;28;20200;-55
2021/06/19 07:27:25;;;;;;;;;;;26.00;93.30;;;;;;5107854;28;19915;-51
2021/06/19 07:29:51;;;;;;;;;;;26.00;93.30;;;;;;5108436;28;19912;-49
2021/06/19 07:32:17;;;;;;;;;;;26.00;93.20;;;;;;5107815;28;20156;-50
2021/06/19 07:34:43;;;;;;;;;;;26.00;93.20;;;;;;5108157;28;19908;-53
2021/06/19 07:37:09;;;;;;;;;;;26.00;93.20;;;;;;5107749;28;19914;-53
2021/06/19 07:39:35;;;;;;;;;;;26.00;93.30;;;;;;5108062;28;19910;-52
2021/06/19 07:42:02;;;;;;;;;;;26.00;93.30;;;;;;5107712;28;19987;-56
2021/06/19 07:44:28;;;;;;;;;;;26.00;93.30;;;;;;5108042;28;20238;-51
2021/06/19 07:46:54;;;;;;;;;;;26.00;93.20;;;;;;5107568;28;19969;-50
2021/06/19 07:49:21;;;;;;;;;;;26.00;93.30;;;;;;5107702;28;19908;-49
2021/06/19 07:51:47;;;;;;;;;;;26.00;93.30;;;;;;5107489;28;20143;-49
2021/06/19 07:54:13;;;;;;;;;;;25.90;93.30;;;;;;5107763;28;19944;-53
2021/06/19 07:56:39;;;;;;;;;;;26.00;93.40;;;;;;5107361;28;19908;-50
2021/06/19 07:59:06;;;;;;;;;;;25.90;93.30;;;;;;5107245;28;20189;-54
2021/06/19 08:01:32;;;;;;;;;;;25.90;93.30;;;;;;5107341;28;19908;-50
2021/06/19 08:03:58;;;;;;;;;;;25.90;93.30;;;;;;5107369;28;19912;-54
2021/06/19 08:06:24;;;;;;;;;;;25.90;93.30;;;;;;5106093;28;20236;-51
2021/06/19 08:08:54;;;;;;;;;;;25.90;93.30;;;;;;5107283;28;20181;-52
2021/06/19 08:11:22;;;;;;;;;;;25.90;93.30;;;;;;5106978;28;20102;-50
2021/06/19 08:13:49;;;;;;;;;;;25.90;93.30;;;;;;5107232;28;19908;-52
2021/06/19 08:16:17;;;;;;;;;;;25.90;93.30;;;;;;5107180;28;20085;-47
2021/06/19 08:18:44;;;;;;;;;;;25.90;93.30;;;;;;5106902;28;19917;-52
2021/06/19 08:21:11;;;;;;;;;;;25.80;93.30;;;;;;5106935;28;19975;-48
2021/06/19 08:23:37;;;;;;;;;;;25.80;93.30;;;;;;5107032;28;19908;-50
2021/06/19 08:26:04;;;;;;;;;;;25.80;93.30;;;;;;5106581;28;19923;-48
2021/06/19 08:28:32;;;;;;;;;;;25.80;93.30;;;;;;5106909;28;19911;-54
2021/06/19 08:30:58;;;;;;;;;;;25.80;93.30;;;;;;5106719;28;19904;-52
2021/06/19 08:33:24;;;;;;;;;;;25.80;93.30;;;;;;5106648;28;20251;-53
2021/06/19 08:35:50;;;;;;;;;;;25.80;93.30;;;;;;5106799;28;19904;-51
2021/06/19 08:38:17;;;;;;;;;;;25.80;93.20;;;;;;5106589;28;19904;-55
2021/06/19 08:40:43;;;;;;;;;;;25.80;93.30;;;;;;5106609;28;19904;-51
2021/06/19 08:43:10;;;;;;;;;;;25.80;93.30;;;;;;5106598;28;20073;-50
2021/06/19 08:45:36;;;;;;;;;;;25.80;93.10;;;;;;5106496;28;20139;-49
2021/06/19 08:48:03;;;;;;;;;;;25.80;93.10;;;;;;5106398;28;19935;-49
2021/06/19 08:50:31;;;;;;;;;;;25.80;93.00;;;;;;5106966;28;19918;-55
2021/06/19 08:52:58;;;;;;;;;;;25.80;93.00;;;;;;5106499;28;19908;-52
2021/06/19 08:55:24;;;;;;;;;;;25.80;92.80;;;;;;5106743;28;19912;-48
2021/06/19 08:57:51;;;;;;;;;;;25.80;92.80;;;;;;5106498;28;19971;-49
2021/06/19 09:00:18;;;;;;;;;;;25.80;92.60;;;;;;5106757;28;19912;-53
2021/06/19 09:02:46;;;;;;;;;;;25.80;92.50;;;;;;5104906;28;19911;-53
2021/06/19 09:05:14;;;;;;;;;;;25.80;92.40;;;;;;5106514;28;19923;-56
2021/06/19 09:07:46;;;;;;;;;;;25.80;92.30;;;;;;5106235;28;19904;-53
2021/06/19 09:10:16;;;;;;;;;;;25.80;92.30;;;;;;5106398;28;19920;-54
2021/06/19 09:12:55;;;;;;;;;;;25.80;92.30;;;;;;5106017;28;19904;-53
2021/06/19 09:15:22;;;;;;;;;;;25.70;92.20;;;;;;5106307;28;19954;-52
2021/06/19 09:18:17;;;;;;;;;;;25.70;92.20;;;;;;5105749;28;19904;-51
2021/06/19 09:20:56;;;;;;;;;;;25.70;92.10;;;;;;5100822;28;19912;-55
2021/06/19 09:23:27;;;;;;;;;;;25.70;92.20;;;;;;5105784;28;19946;-53
2021/06/19 09:26:11;;;;;;;;;;;25.70;92.20;;;;;;5105516;28;19916;-53
2021/06/19 09:28:56;;;;;;;;;;;25.70;92.30;;;;;;5105969;28;19919;-57
2021/06/19 09:31:35;;;;;;;;;;;25.70;92.40;;;;;;5104360;28;20266;-49
2021/06/19 09:34:11;;;;;;;;;;;25.70;92.20;;;;;;5105785;28;19912;-52
2021/06/19 09:36:41;;;;;;;;;;;25.70;92.10;;;;;;5105424;28;19975;-59
2021/06/19 09:39:08;;;;;;;;;;;25.70;92.20;;;;;;5105627;28;19919;-49
2021/06/19 09:41:35;;;;;;;;;;;25.70;92.20;;;;;;5105324;28;19927;-50
2021/06/19 09:44:02;;;;;;;;;;;25.70;92.20;;;;;;5105214;28;19971;-51
2021/06/19 09:46:28;;;;;;;;;;;25.70;92.30;;;;;;5105278;28;20008;-53
2021/06/19 09:48:54;;;;;;;;;;;25.70;92.30;;;;;;5105386;28;19912;-52
2021/06/19 09:51:23;;;;;;;;;;;25.70;92.20;;;;;;5105158;28;19904;-52
2021/06/19 09:53:54;;;;;;;;;;;25.70;92.20;;;;;;5105246;28;19912;-50
2021/06/19 09:56:21;;;;;;;;;;;25.70;92.20;;;;;;5105167;28;20131;-56
2021/06/19 09:58:47;;;;;;;;;;;25.70;92.20;;;;;;5105120;28;19912;-51
2021/06/19 10:01:35;;;;;;;;;;;25.70;92.10;;;;;;5105268;28;19904;-50
2021/06/19 10:04:02;;;;;;;;;;;25.70;92.10;;;;;;5105077;28;19912;-51
2021/06/19 10:06:29;;;;;;;;;;;25.70;92.00;;;;;;5104871;28;20201;-51
2021/06/19 10:08:55;;;;;;;;;;;25.70;91.90;;;;;;5105051;28;20006;-51
2021/06/19 10:11:26;;;;;;;;;;;25.70;92.00;;;;;;5104806;28;19939;-49
2021/06/19 10:13:54;;;;;;;;;;;25.60;92.00;;;;;;5104971;28;19912;-52
2021/06/19 10:16:23;;;;;;;;;;;25.60;92.10;;;;;;5104773;28;19911;-54
2021/06/19 10:18:50;;;;;;;;;;;25.60;92.10;;;;;;5104820;28;19975;-53
2021/06/19 10:21:16;;;;;;;;;;;25.60;92.10;;;;;;5104760;28;20160;-48
2021/06/19 10:23:43;;;;;;;;;;;25.60;92.10;;;;;;5088888;28;19944;-54
2021/06/19 10:26:09;;;;;;;;;;;25.60;92.10;;;;;;5084111;28;19916;-52
2021/06/19 10:28:37;;;;;;;;;;;25.60;92.10;;;;;;5083909;28;19920;-51
2021/06/19 10:31:03;;;;;;;;;;;25.60;92.10;;;;;;5095993;28;19954;-54
2021/06/19 10:33:36;;;;;;;;;;;25.60;92.00;;;;;;5104516;28;19904;-49
2021/06/19 10:36:07;;;;;;;;;;;25.60;92.00;;;;;;5104579;28;19932;-51
2021/06/19 10:38:47;;;;;;;;;;;25.60;91.90;;;;;;5104440;28;20227;-54
2021/06/19 10:41:14;;;;;;;;;;;25.50;91.90;;;;;;5104348;28;19904;-52
2021/06/19 10:43:44;;;;;;;;;;;25.60;91.90;;;;;;5104513;28;19980;-51
2021/06/19 10:46:28;;;;;;;;;;;25.60;91.90;;;;;;5104580;28;19983;-54
2021/06/19 10:48:55;;;;;;;;;;;25.60;91.90;;;;;;5104481;28;19912;-56
2021/06/19 10:51:22;;;;;;;;;;;25.60;91.90;;;;;;5104228;28;19904;-50
2021/06/19 10:54:07;;;;;;;;;;;25.60;91.90;;;;;;5104443;28;19935;-53
2021/06/19 10:56:59;;;;;;;;;;;25.60;92.00;;;;;;5104198;28;19912;-51
2021/06/19 10:59:32;;;;;;;;;;;25.60;92.10;;;;;;5103518;28;19954;-51
2021/06/19 11:02:00;;;;;;;;;;;25.60;92.20;;;;;;5104238;28;19920;-56
2021/06/19 11:04:38;;;;;;;;;;;25.60;92.30;;;;;;5104544;28;19970;-57
2021/06/19 11:07:05;;;;;;;;;;;25.60;92.30;;;;;;5104370;28;19908;-53
2021/06/19 11:09:41;;;;;;;;;;;25.60;92.30;;;;;;5101499;28;19920;-52
2021/06/19 11:12:22;;;;;;;;;;;25.60;92.50;;;;;;5084021;28;19906;-51
2021/06/19 11:14:50;;;;;;;;;;;25.70;92.50;;;;;;5084342;28;19912;-48
2021/06/19 11:17:26;;;;;;;;;;;25.70;92.60;;;;;;5083904;28;20026;-54
2021/06/19 11:20:02;;;;;;;;;;;25.70;92.70;;;;;;5095031;28;19919;-54
2021/06/19 11:22:30;;;;;;;;;;;25.70;92.70;;;;;;5104448;28;19904;-49
2021/06/19 11:25:21;;;;;;;;;;;25.70;92.60;;;;;;5104361;28;19912;-54
2021/06/19 11:28:04;;;;;;;;;;;25.70;92.50;;;;;;5100815;28;19916;-52
2021/06/19 11:30:34;;;;;;;;;;;25.70;92.40;;;;;;5104511;28;19919;-54
2021/06/19 11:33:21;;;;;;;;;;;25.70;92.40;;;;;;5103885;28;19915;-54
2021/06/19 11:35:58;;;;;;;;;;;25.70;92.40;;;;;;5103948;28;19912;-51
2021/06/19 11:38:24;;;;;;;;;;;25.80;92.30;;;;;;5104167;28;19912;-55
2021/06/19 11:40:51;;;;;;;;;;;25.80;92.20;;;;;;5106407;28;19915;-55
2021/06/19 11:43:29;;;;;;;;;;;26.00;92.10;;;;;;5107639;28;19904;-53
2021/06/19 11:46:00;;;;;;;;;;;26.00;92.10;;;;;;5107584;28;20205;-52
2021/06/19 11:48:26;;;;;;;;;;;26.00;92.00;;;;;;5107597;28;19904;-54
2021/06/19 11:51:01;;;;;;;;;;;26.00;91.90;;;;;;5107669;28;19967;-50
2021/06/19 11:53:37;;;;;;;;;;;26.00;91.80;;;;;;5107447;28;19927;-53
2021/06/19 11:56:06;;;;;;;;;;;26.00;91.80;;;;;;5107413;28;19908;-54
2021/06/19 11:58:42;;;;;;;;;;;26.00;91.80;;;;;;5107359;28;19950;-52
2021/06/19 12:01:08;;;;;;;;;;;26.00;91.80;;;;;;5107371;28;19908;-51
2021/06/19 12:03:34;;;;;;;;;;;26.10;91.80;;;;;;5107295;28;19908;-53
2021/06/19 12:06:01;;;;;;;;;;;26.10;91.80;;;;;;5107118;28;19912;-57
2021/06/19 12:08:27;;;;;;;;;;;26.10;91.90;;;;;;5107388;28;19945;-49
2021/06/19 12:10:53;;;;;;;;;;;26.10;91.90;;;;;;5107240;28;19908;-55
2021/06/19 12:13:30;;;;;;;;;;;26.20;92.00;;;;;;5106973;28;19912;-51
2021/06/19 12:15:57;;;;;;;;;;;26.10;91.80;;;;;;5107137;28;20230;-49
2021/06/19 12:18:23;;;;;;;;;;;26.10;92.00;;;;;;5106945;28;19904;-47
2021/06/19 12:20:59;;;;;;;;;;;26.20;92.00;;;;;;5106801;28;19909;-53
2021/06/19 12:23:32;;;;;;;;;;;26.20;92.00;;;;;;5106865;28;19904;-52
2021/06/19 12:26:04;;;;;;;;;;;26.30;92.20;;;;;;5106552;28;20108;-53
2021/06/19 12:28:30;;;;;;;;;;;26.30;92.00;;;;;;5106851;28;19924;-53
2021/06/19 12:30:57;;;;;;;;;;;26.40;91.90;;;;;;5106747;28;20074;-53
2021/06/19 12:33:24;;;;;;;;;;;26.50;91.90;;;;;;5106591;28;19904;-54
2021/06/19 12:35:50;;;;;;;;;;;26.40;92.00;;;;;;5106700;28;19904;-50
2021/06/19 12:38:20;;;;;;;;;;;26.50;91.90;;;;;;5106653;28;19904;-55
2021/06/19 12:40:47;;;;;;;;;;;26.50;91.90;;;;;;5106808;28;19904;-52
2021/06/19 12:43:14;;;;;;;;;;;26.60;92.00;;;;;;5106375;28;19911;-50
2021/06/19 12:45:45;;;;;;;;;;;26.60;92.00;;;;;;5095437;28;19912;-55
2021/06/19 12:48:17;;;;;;;;;;;26.60;92.00;;;;;;5085908;28;19904;-53
2021/06/19 12:50:44;;;;;;;;;;;26.60;92.10;;;;;;5086333;28;20097;-53
2021/06/19 12:53:12;;;;;;;;;;;26.60;92.10;;;;;;5085472;28;19946;-48
2021/06/19 12:55:39;;;;;;;;;;;26.70;92.10;;;;;;5085883;28;19948;-50
2021/06/19 12:58:05;;;;;;;;;;;26.70;92.10;;;;;;5099318;28;20013;-49
2021/06/19 13:00:39;;;;;;;;;;;26.80;92.20;;;;;;5105916;28;19918;-52
2021/06/19 13:03:06;;;;;;;;;;;26.80;92.10;;;;;;5106082;28;20238;-51
2021/06/19 13:05:32;;;;;;;;;;;26.90;91.90;;;;;;5106526;28;20109;-53
2021/06/19 13:08:12;;;;;;;;;;;26.90;91.90;;;;;;5105901;28;19904;-54
2021/06/19 13:10:38;;;;;;;;;;;27.00;91.80;;;;;;5106118;28;19912;-53
2021/06/19 13:13:04;;;;;;;;;;;27.00;91.70;;;;;;5106017;28;19931;-52
2021/06/19 13:15:30;;;;;;;;;;;27.00;91.70;;;;;;5106353;28;19950;-50
2021/06/19 13:17:57;;;;;;;;;;;27.00;91.70;;;;;;5105775;28;20258;-59
2021/06/19 13:20:37;;;;;;;;;;;27.00;91.70;;;;;;5106236;28;20097;-51
2021/06/19 13:23:08;;;;;;;;;;;27.10;91.70;;;;;;5105610;28;19920;-57
2021/06/19 13:25:53;;;;;;;;;;;27.10;91.70;;;;;;5105819;28;19920;-55
2021/06/19 13:28:35;;;;;;;;;;;27.20;91.70;;;;;;5105532;28;19912;-49
2021/06/19 13:31:12;;;;;;;;;;;27.20;91.60;;;;;;5105557;28;19944;-54
2021/06/19 13:33:43;;;;;;;;;;;27.20;91.60;;;;;;5105612;28;19912;-51
2021/06/19 13:36:16;;;;;;;;;;;27.20;91.60;;;;;;5105438;28;20242;-48
2021/06/19 13:38:53;;;;;;;;;;;27.30;91.60;;;;;;5105435;28;19912;-54
2021/06/19 13:41:19;;;;;;;;;;;27.30;91.60;;;;;;5104100;28;19983;-55
2021/06/19 13:43:46;;;;;;;;;;;27.30;91.70;;;;;;5105132;28;19939;-51
2021/06/19 13:46:12;;;;;;;;;;;27.30;91.60;;;;;;5105390;28;19912;-54
2021/06/19 13:48:38;;;;;;;;;;;27.30;91.60;;;;;;5105381;28;19908;-49
2021/06/19 13:51:04;;;;;;;;;;;27.30;91.60;;;;;;5105239;28;19908;-54
2021/06/19 13:53:31;;;;;;;;;;;27.40;91.80;;;;;;5105100;28;19965;-53
2021/06/19 13:55:57;;;;;;;;;;;27.40;91.70;;;;;;5105185;28;19908;-50
2021/06/19 13:58:27;;;;;;;;;;;27.40;91.70;;;;;;5105064;28;19904;-51
2021/06/19 14:00:53;;;;;;;;;;;27.40;91.70;;;;;;5105420;28;19934;-54
2021/06/19 14:03:20;;;;;;;;;;;27.40;91.70;;;;;;5104049;28;19904;-53
2021/06/19 14:05:46;;;;;;;;;;;27.40;91.70;;;;;;5105015;28;19947;-52
2021/06/19 14:08:12;;;;;;;;;;;27.50;91.70;;;;;;5104759;28;19908;-55
2021/06/19 14:10:38;;;;;;;;;;;27.50;91.70;;;;;;5104882;28;19975;-56
2021/06/19 14:13:04;;;;;;;;;;;27.50;91.70;;;;;;5104900;28;19979;-56
2021/06/19 14:15:31;;;;;;;;;;;27.50;91.60;;;;;;5105113;28;20097;-52
2021/06/19 14:17:57;;;;;;;;;;;27.60;91.60;;;;;;5104759;28;19915;-52
2021/06/19 14:20:23;;;;;;;;;;;27.60;91.60;;;;;;5105326;28;19908;-54
2021/06/19 14:22:49;;;;;;;;;;;27.70;91.50;;;;;;5104335;28;20244;-54
2021/06/19 14:25:17;;;;;;;;;;;27.70;91.40;;;;;;5104088;28;19920;-54